Time;durP1;ratioP1;P1;durP2;ratioP2;P2;SDS_P1;SDS_P2;PMS_P1;PMS_P2;Temp;Humidity;BMP_temperature;BMP_pressure;BME280_temperature;BME280_humidity;BME280_pressure;Samples;Min_cycle;Max_cycle;Signal;HPM_P1;HPM_P2
2022/03/09 00:01:26;;;;;;;17.17;10.28;;;;;;;-2.67;100.00;99851.64;1739369;82;21173;-82
2022/03/09 00:04:31;;;;;;;18.75;10.58;;;;;;;-2.71;100.00;99842.95;1740630;82;21169;-76
2022/03/09 00:07:38;;;;;;;16.10;10.32;;;;;;;-2.75;100.00;99843.27;1739882;82;21172;-75
2022/03/09 00:10:43;;;;;;;17.48;10.13;;;;;;;-2.79;100.00;99844.42;1740731;82;21169;-75
2022/03/09 00:13:49;;;;;;;18.02;10.30;;;;;;;-2.83;100.00;99839.27;1739840;82;21192;-82
2022/03/09 00:16:56;;;;;;;18.57;10.55;;;;;;;-2.86;100.00;99834.63;1740329;82;21240;-75
2022/03/09 00:20:02;;;;;;;13.80;9.78;;;;;;;-2.88;100.00;99828.02;1740710;82;21769;-75
2022/03/09 00:23:02;;;;;;;13.28;9.23;;;;;;;-2.88;100.00;99832.52;1740820;82;21204;-82
2022/03/09 00:25:55;;;;;;;16.10;9.55;;;;;;;-2.91;100.00;99821.55;1740875;82;21157;-81
2022/03/09 00:29:04;;;;;;;19.25;11.35;;;;;;;-2.93;100.00;99820.78;1740795;82;21257;-77
2022/03/09 00:32:10;;;;;;;18.90;11.33;;;;;;;-2.94;100.00;99824.91;1740806;82;21205;-81
2022/03/09 00:35:16;;;;;;;22.95;13.72;;;;;;;-2.97;100.00;99833.98;1740820;82;21739;-81
2022/03/09 00:38:23;;;;;;;24.05;12.63;;;;;;;-3.00;100.00;99836.88;1740757;82;21245;-76
2022/03/09 00:41:29;;;;;;;27.75;15.85;;;;;;;-3.03;100.00;99838.41;1740770;82;21609;-79
2022/03/09 00:44:35;;;;;;;28.52;16.67;;;;;;;-3.08;100.00;99833.84;1739752;82;21495;-81
2022/03/09 00:47:42;;;;;;;29.63;15.63;;;;;;;-3.12;100.00;99835.00;1739274;82;21189;-76
2022/03/09 00:50:49;;;;;;;27.32;14.95;;;;;;;-3.18;100.00;99836.27;1740613;82;21157;-79
2022/03/09 00:53:57;;;;;;;37.93;17.17;;;;;;;-3.21;100.00;99824.42;1740550;82;21165;-76
2022/03/09 00:57:02;;;;;;;30.23;16.70;;;;;;;-3.23;100.00;99826.84;1739383;82;21185;-80
2022/03/09 01:00:10;;;;;;;30.85;16.30;;;;;;;-3.25;100.00;99831.41;1739640;82;21248;-81
2022/03/09 01:03:16;;;;;;;30.32;16.17;;;;;;;-3.28;100.00;99829.81;1739435;82;21189;-82
2022/03/09 01:06:23;;;;;;;29.45;16.35;;;;;;;-3.31;100.00;99831.83;1740597;82;21169;-77
2022/03/09 01:09:29;;;;;;;29.92;17.25;;;;;;;-3.33;100.00;99827.07;1740590;82;21731;-83
2022/03/09 01:12:35;;;;;;;30.52;16.15;;;;;;;-3.33;100.00;99833.27;1739372;82;21236;-75
2022/03/09 01:15:34;;;;;;;;;;;;;;;-3.33;100.00;99825.25;1741815;82;21173;-81
2022/03/09 01:18:32;;;;;;;32.25;17.90;;;;;;;-3.32;100.00;99832.79;1739625;82;20185;-77
2022/03/09 01:21:25;;;;;;;30.43;16.95;;;;;;;-3.31;100.00;99829.15;1740549;82;21173;-83
2022/03/09 01:24:11;;;;;;;38.90;20.08;;;;;;;-3.30;100.00;99828.19;1740585;82;21205;-78
2022/03/09 01:27:04;;;;;;;35.95;18.52;;;;;;;-3.30;100.00;99830.86;1740135;82;21204;-77
2022/03/09 01:29:51;;;;;;;30.02;17.35;;;;;;;-3.30;100.00;99826.84;1739282;82;21817;-83
2022/03/09 01:32:58;;;;;;;30.40;16.90;;;;;;;-3.31;100.00;99828.67;1739586;82;21209;-83
2022/03/09 01:36:03;;;;;;;28.15;15.80;;;;;;;-3.31;100.00;99830.00;1740796;82;21204;-75
2022/03/09 01:39:10;;;;;;;25.17;15.35;;;;;;;-3.31;100.00;99838.03;1739590;82;21177;-75
2022/03/09 01:42:15;;;;;;;25.17;14.98;;;;;;;-3.30;100.00;99834.39;1733223;81;21185;-75
2022/03/09 01:45:24;;;;;;;24.15;15.25;;;;;;;-3.30;100.00;99843.75;1734077;83;21794;-77
2022/03/09 01:48:30;;;;;;;24.15;14.50;;;;;;;-3.30;100.00;99838.88;1733612;83;21775;-76
2022/03/09 01:51:35;;;;;;;25.20;15.60;;;;;;;-3.30;100.00;99837.55;1734886;83;21193;-83
2022/03/09 01:54:41;;;;;;;32.50;16.00;;;;;;;-3.28;100.00;99832.97;1734866;83;21170;-76
2022/03/09 01:57:47;;;;;;;26.55;14.65;;;;;;;-3.25;100.00;99835.42;1734030;83;21209;-82
2022/03/09 02:00:46;;;;;;;25.48;14.65;;;;;;;-3.25;100.00;99830.93;1733970;82;21209;-76
2022/03/09 02:03:53;;;;;;;22.58;14.68;;;;;;;-3.24;100.00;99835.83;1734893;83;21241;-76
2022/03/09 02:07:00;;;;;;;26.27;15.95;;;;;;;-3.24;100.00;99838.50;1733418;82;21770;-76
2022/03/09 02:10:06;;;;;;;25.20;15.75;;;;;;;-3.24;100.00;99848.72;1734740;83;21153;-82
2022/03/09 02:13:12;;;;;;;27.85;16.65;;;;;;;-3.24;100.00;99858.56;1733541;83;21257;-76
2022/03/09 02:16:23;;;;;;;31.65;18.30;;;;;;;-3.27;100.00;99852.92;1734184;82;21276;-75
2022/03/09 02:19:30;;;;;;;34.25;18.90;;;;;;;-3.29;100.00;99859.31;1733407;83;21221;-82
2022/03/09 02:22:41;;;;;;;31.68;19.45;;;;;;;-3.29;100.00;99851.30;1734241;83;21197;-82
2022/03/09 02:25:47;;;;;;;32.42;17.52;;;;;;;-3.29;100.00;99849.95;1734735;83;21197;-82
2022/03/09 02:28:55;;;;;;;34.13;17.95;;;;;;;-3.28;100.00;99849.88;1733423;83;21809;-76
2022/03/09 02:32:00;;;;;;;34.40;18.62;;;;;;;-3.26;100.00;99846.61;1734368;83;21177;-81
2022/03/09 02:35:06;;;;;;;28.00;18.32;;;;;;;-3.25;100.00;99847.46;1735033;83;21142;-75
2022/03/09 02:38:12;;;;;;;29.35;17.42;;;;;;;-3.27;100.00;99844.05;1733904;83;21213;-75
2022/03/09 02:41:17;;;;;;;32.50;19.35;;;;;;;-3.30;100.00;99847.76;1734414;83;21169;-82
2022/03/09 02:44:22;;;;;;;33.85;20.15;;;;;;;-3.32;100.00;99852.37;1722330;83;21750;-76
2022/03/09 02:47:28;;;;;;;33.60;19.40;;;;;;;-3.33;100.00;99847.98;1721610;83;21201;-76
2022/03/09 02:50:34;;;;;;;37.58;20.48;;;;;;;-3.33;100.00;99848.47;1720977;83;21220;-76
2022/03/09 02:53:41;;;;;;;27.90;16.52;;;;;;;-3.34;100.00;99846.23;1722358;83;21209;-76
2022/03/09 02:56:48;;;;;;;29.70;18.37;;;;;;;-3.37;100.00;99851.33;1722141;83;21201;-83
2022/03/09 02:59:53;;;;;;;33.00;18.67;;;;;;;-3.39;100.00;99845.69;1721478;83;21189;-83
2022/03/09 03:02:59;;;;;;;33.95;19.02;;;;;;;-3.38;100.00;99844.27;1721437;83;21181;-76
2022/03/09 03:06:06;;;;;;;35.55;19.25;;;;;;;-3.34;100.00;99839.55;1722340;83;21813;-83
2022/03/09 03:09:13;;;;;;;34.90;19.37;;;;;;;-3.29;100.00;99839.25;1722056;83;21225;-76
2022/03/09 03:12:18;;;;;;;27.52;17.12;;;;;;;-3.24;100.00;99838.50;1720880;83;21204;-81
2022/03/09 03:15:24;;;;;;;32.20;19.90;;;;;;;-3.22;100.00;99834.75;1722297;83;21193;-83
2022/03/09 03:18:31;;;;;;;33.18;19.40;;;;;;;-3.22;100.00;99835.23;1721026;83;21212;-83
2022/03/09 03:21:38;;;;;;;32.20;20.82;;;;;;;-3.24;100.00;99839.36;1722328;83;21204;-82
2022/03/09 03:24:44;;;;;;;41.05;23.98;;;;;;;-3.27;100.00;99838.69;1722600;83;21209;-81
2022/03/09 03:27:49;;;;;;;34.23;22.25;;;;;;;-3.27;100.00;99844.05;1722387;83;21209;-82
2022/03/09 03:30:55;;;;;;;31.33;21.02;;;;;;;-3.28;100.00;99841.85;1722502;83;21186;-81
2022/03/09 03:34:00;;;;;;;37.78;23.20;;;;;;;-3.26;100.00;99840.41;1722387;83;21225;-75
2022/03/09 03:37:05;;;;;;;32.03;22.32;;;;;;;-3.25;100.00;99843.45;1722032;83;21209;-82
2022/03/09 03:40:12;;;;;;;29.15;20.05;;;;;;;-3.23;100.00;99842.89;1721814;83;21773;-77
2022/03/09 03:43:18;;;;;;;29.95;19.32;;;;;;;-3.19;100.00;99838.58;1726056;82;21187;-75
2022/03/09 03:46:24;;;;;;;31.68;21.48;;;;;;;-3.15;100.00;99839.24;1735156;82;21208;-75
2022/03/09 03:49:29;;;;;;;30.48;20.72;;;;;;;-3.09;100.00;99838.83;1735205;82;21185;-76
2022/03/09 03:52:34;;;;;;;28.60;19.37;;;;;;;-3.05;100.00;99839.49;1735138;82;21208;-81
2022/03/09 03:55:40;;;;;;;27.02;19.02;;;;;;;-3.02;100.00;99835.25;1735283;82;21161;-82
2022/03/09 03:58:47;;;;;;;33.28;21.68;;;;;;;-2.99;100.00;99835.91;1735224;82;21730;-76
2022/03/09 04:01:52;;;;;;;31.45;20.70;;;;;;;-2.93;100.00;99830.14;1734726;82;21244;-75
2022/03/09 04:05:00;;;;;;;30.72;21.90;;;;;;;-2.88;100.00;99837.38;1734964;82;21177;-82
2022/03/09 04:08:05;;;;;;;34.63;22.50;;;;;;;-2.83;100.00;99834.39;1734007;82;21208;-76
2022/03/09 04:11:11;;;;;;;35.88;22.25;;;;;;;-2.79;100.00;99829.22;1734203;82;21248;-82
2022/03/09 04:14:19;;;;;;;34.10;23.83;;;;;;;-2.75;100.00;99836.09;1734939;82;21174;-82
2022/03/09 04:17:23;;;;;;;35.83;22.90;;;;;;;-2.72;100.00;99829.69;1734508;82;21778;-76
2022/03/09 04:20:30;;;;;;;31.48;21.73;;;;;;;-2.70;100.00;99837.12;1734685;82;21173;-82
2022/03/09 04:23:36;;;;;;;35.83;23.32;;;;;;;-2.69;99.96;99837.48;1733696;82;21208;-83
2022/03/09 04:26:41;;;;;;;30.75;21.62;;;;;;;-2.70;99.13;99838.45;1735010;82;21555;-77
2022/03/09 04:29:46;;;;;;;30.85;20.32;;;;;;;-2.72;97.96;99829.20;1735133;82;21225;-81
2022/03/09 04:32:54;;;;;;;34.58;22.98;;;;;;;-2.73;97.23;99839.53;1734335;82;21765;-75
2022/03/09 04:35:53;;;;;;;40.58;25.88;;;;;;;-2.72;96.46;99835.89;1735046;82;21281;-82
2022/03/09 04:38:48;;;;;;;41.95;26.12;;;;;;;-2.71;95.97;99843.44;1735110;82;21150;-82
2022/03/09 04:41:54;;;;;;;48.52;29.37;;;;;;;-2.70;95.72;99839.80;1734084;82;21837;-76
2022/03/09 04:45:01;;;;;;;46.37;28.38;;;;;;;-2.68;95.83;99844.55;1740684;82;21196;-82
2022/03/09 04:48:06;;;;;;;47.58;30.10;;;;;;;-2.66;96.26;99846.17;1748762;82;21673;-76
2022/03/09 04:51:12;;;;;;;46.10;29.85;;;;;;;-2.64;96.61;99850.94;1748701;82;21169;-77
2022/03/09 04:54:17;;;;;;;44.48;27.27;;;;;;;-2.63;96.94;99854.50;1748847;82;21169;-82
2022/03/09 04:57:23;;;;;;;40.40;25.65;;;;;;;-2.61;97.31;99857.43;1748747;82;21798;-76
2022/03/09 05:00:29;;;;;;;49.05;30.37;;;;;;;-2.60;97.38;99856.95;1748647;82;21165;-77
2022/03/09 05:03:34;;;;;;;44.33;29.15;;;;;;;-2.59;97.54;99862.67;1748693;82;21165;-78
2022/03/09 05:06:39;;;;;;;49.18;29.02;;;;;;;-2.58;97.68;99868.43;1748708;82;21197;-81
2022/03/09 05:09:44;;;;;;;46.00;27.62;;;;;;;-2.59;97.56;99870.70;1748746;82;21157;-81
2022/03/09 05:12:51;;;;;;;47.80;29.60;;;;;;;-2.61;97.13;99870.81;1747131;82;21236;-81
2022/03/09 05:15:56;;;;;;;48.50;32.03;;;;;;;-2.63;96.76;99875.91;1748711;82;21750;-81
2022/03/09 05:18:54;;;;;;;47.58;31.20;;;;;;;-2.66;96.04;99876.11;1748700;82;21810;-82
2022/03/09 05:21:48;;;;;;;38.48;25.35;;;;;;;-2.70;95.14;99878.61;1748444;82;21208;-75
2022/03/09 05:24:57;;;;;;;42.20;25.85;;;;;;;-2.73;94.53;99885.50;1747932;82;21169;-75
2022/03/09 05:28:02;;;;;;;46.42;27.20;;;;;;;-2.76;94.05;99887.06;1747581;82;21208;-81
2022/03/09 05:31:09;;;;;;;38.35;26.17;;;;;;;-2.80;93.81;99886.89;1748412;82;21209;-76
2022/03/09 05:34:15;;;;;;;38.23;25.10;;;;;;;-2.83;93.39;99891.95;1747996;82;21796;-81
2022/03/09 05:37:22;;;;;;;40.20;24.35;;;;;;;-2.87;92.78;99893.99;1747943;82;21200;-81
2022/03/09 05:40:29;;;;;;;42.15;26.07;;;;;;;-2.88;92.57;99897.60;1748687;82;21173;-77
2022/03/09 05:43:35;;;;;;;43.05;26.35;;;;;;;-2.88;92.52;99894.08;1746988;82;21208;-76
2022/03/09 05:46:39;;;;;;;42.58;26.82;;;;;;;-2.87;92.54;99895.33;1746359;82;21200;-77
2022/03/09 05:49:46;;;;;;;32.70;22.67;;;;;;;-2.80;92.75;99901.61;1748563;82;21196;-82
2022/03/09 05:52:51;;;;;;;36.98;23.32;;;;;;;-2.76;92.17;99906.66;1747410;82;21188;-79
2022/03/09 05:55:57;;;;;;;37.65;23.35;;;;;;;-2.71;91.41;99917.06;1748472;82;21165;-83
2022/03/09 05:59:03;;;;;;;38.83;24.72;;;;;;;-2.67;90.39;99907.88;1748167;82;21189;-80
2022/03/09 06:02:08;;;;;;;36.93;23.30;;;;;;;-2.64;89.73;99906.30;1747875;82;21208;-83
2022/03/09 06:05:16;;;;;;;38.67;24.07;;;;;;;-2.61;89.09;99902.95;1747258;82;21209;-83
2022/03/09 06:08:22;;;;;;;37.90;24.98;;;;;;;-2.55;88.98;99903.50;1746539;82;21259;-82
2022/03/09 06:11:30;;;;;;;37.33;25.35;;;;;;;-2.51;89.33;99905.87;1734520;82;21174;-83
2022/03/09 06:14:36;;;;;;;39.88;25.60;;;;;;;-2.49;89.77;99910.66;1712699;82;21747;-77
2022/03/09 06:17:50;;;;;;;42.65;26.35;;;;;;;-2.46;90.15;99914.45;1735990;82;21200;-76
2022/03/09 06:20:58;;;;;;;48.33;28.45;;;;;;;-2.45;90.52;99914.81;1745512;82;21219;-82
2022/03/09 06:24:04;;;;;;;47.98;28.85;;;;;;;-2.43;90.96;99915.59;1724296;83;21196;-82
2022/03/09 06:27:10;;;;;;;46.05;27.75;;;;;;;-2.42;90.93;99914.63;1716248;82;21184;-76
2022/03/09 06:30:17;;;;;;;45.10;27.40;;;;;;;-2.41;90.57;99916.33;1719117;83;21806;-83
2022/03/09 06:33:24;;;;;;;55.23;32.67;;;;;;;-2.38;90.87;99916.14;1716527;83;21196;-82
2022/03/09 06:36:30;;;;;;;50.40;29.55;;;;;;;-2.32;90.88;99918.88;1740705;82;21180;-77
2022/03/09 06:39:35;;;;;;;41.98;27.40;;;;;;;-2.29;90.89;99921.36;1709880;82;21174;-82
2022/03/09 06:42:41;;;;;;;41.98;27.58;;;;;;;-2.32;89.67;99915.71;1707953;82;21213;-82
2022/03/09 06:45:47;;;;;;;60.92;32.63;;;;;;;-2.35;88.84;99921.30;1720866;82;21188;-76
2022/03/09 06:48:52;;;;;;;51.02;31.20;;;;;;;-2.39;88.76;99913.09;1694013;84;21203;-76
2022/03/09 06:51:57;;;;;;;45.65;28.52;;;;;;;-2.43;88.89;99920.09;1683665;85;21171;-77
2022/03/09 06:55:03;;;;;;;41.42;27.05;;;;;;;-2.51;88.76;99920.59;1687214;85;21200;-82
2022/03/09 06:58:08;;;;;;;42.27;27.22;;;;;;;-2.55;88.86;99918.23;1684752;83;21187;-83
2022/03/09 07:01:14;;;;;;;42.43;27.17;;;;;;;-2.54;88.38;99923.95;1687535;83;21346;-77
2022/03/09 07:04:21;;;;;;;44.77;27.67;;;;;;;-2.55;88.14;99919.08;1683434;85;21171;-82
2022/03/09 07:07:27;;;;;;;43.02;26.07;;;;;;;-2.49;88.54;99920.03;1668725;85;21712;-76
2022/03/09 07:10:32;;;;;;;45.43;28.92;;;;;;;-2.43;88.43;99911.58;1682963;84;21223;-77
2022/03/09 07:13:38;;;;;;;37.42;22.20;;;;;;;-2.37;87.84;99909.81;1689966;83;21259;-76
2022/03/09 07:16:44;;;;;;;35.85;22.40;;;;;;;-2.33;87.11;99915.83;1690858;85;21275;-76
2022/03/09 07:19:45;;;;;;;48.42;29.48;;;;;;;-2.29;85.81;99916.00;1690051;85;21737;-82
2022/03/09 07:22:50;;;;;;;39.45;25.77;;;;;;;-2.22;85.62;99913.27;1684877;85;21263;-81
2022/03/09 07:25:55;;;;;;;41.98;27.70;;;;;;;-2.17;85.41;99907.59;1691247;85;21196;-76
2022/03/09 07:29:03;;;;;;;35.43;24.45;;;;;;;-2.17;85.90;99910.27;1690914;85;21699;-76
2022/03/09 07:32:08;;;;;;;40.35;25.17;;;;;;;-2.24;85.71;99914.34;1691212;83;21211;-76
2022/03/09 07:35:16;;;;;;;35.33;23.65;;;;;;;-2.33;85.53;99916.68;1689686;85;21156;-81
2022/03/09 07:38:22;;;;;;;40.60;25.50;;;;;;;-2.38;85.68;99916.14;1687278;84;21191;-81
2022/03/09 07:41:29;;;;;;;39.75;24.70;;;;;;;-2.37;85.68;99916.50;1692042;83;21156;-76
2022/03/09 07:44:34;;;;;;;39.10;26.27;;;;;;;-2.34;85.77;99918.98;1686530;85;21748;-76
2022/03/09 07:47:41;;;;;;;40.85;27.15;;;;;;;-2.30;85.73;99916.11;1696670;83;21270;-82
2022/03/09 07:50:47;;;;;;;39.38;23.60;;;;;;;-2.27;85.78;99914.55;1708891;83;21220;-79
2022/03/09 07:53:53;;;;;;;38.98;25.12;;;;;;;-2.24;84.70;99921.05;1766913;80;21151;-77
2022/03/09 07:57:01;;;;;;;36.90;23.45;;;;;;;-2.28;84.23;99917.70;1766912;79;21233;-81
2022/03/09 08:00:06;;;;;;;36.08;24.43;;;;;;;-2.27;84.34;99926.12;1765344;81;21538;-81
2022/03/09 08:03:13;;;;;;;39.78;26.12;;;;;;;-2.30;84.19;99929.51;1762764;79;21193;-81
2022/03/09 08:06:20;;;;;;;38.38;24.77;;;;;;;-2.30;84.22;99924.15;1766816;81;21173;-76
2022/03/09 08:09:19;;;;;;;39.33;22.75;;;;;;;-2.28;83.88;99928.91;1764767;81;21146;-76
2022/03/09 08:12:24;;;;;;;36.00;23.02;;;;;;;-2.30;83.61;99930.36;1758159;79;21225;-76
2022/03/09 08:15:30;;;;;;;33.50;22.98;;;;;;;-2.29;83.20;99935.23;1765880;80;21735;-81
2022/03/09 08:18:36;;;;;;;33.23;22.22;;;;;;;-2.35;82.98;99925.31;1767032;81;21162;-76
2022/03/09 12:13:52;;;;;;;51.98;33.33;;;;;;;-1.28;87.42;99946.45;1917562;75;22688;-81
2022/03/09 12:17:08;;;;;;;48.85;31.12;;;;;;;-1.25;86.95;99956.13;1817452;79;21740;-75
2022/03/09 12:20:37;;;;;;;44.23;29.42;;;;;;;-1.24;86.78;99952.47;1851225;77;21160;-81
2022/03/09 12:23:41;;;;;;;47.65;30.32;;;;;;;-1.19;87.26;99942.25;1818045;79;21169;-81
2022/03/09 12:26:57;;;;;;;48.25;28.62;;;;;;;-1.09;86.57;99948.67;1817888;79;21212;-81
2022/03/09 12:30:02;;;;;;;53.95;33.60;;;;;;;-1.04;85.45;99947.85;1818209;79;21140;-81
2022/03/09 12:33:08;;;;;;;44.70;28.77;;;;;;;-1.00;84.77;99951.17;1818104;79;21180;-76
2022/03/09 12:36:22;;;;;;;44.03;29.72;;;;;;;-0.92;84.55;99962.22;1818122;79;21149;-76
2022/03/09 12:39:28;;;;;;;44.30;27.75;;;;;;;-0.88;83.82;99955.17;1818159;79;21156;-81
2022/03/09 12:42:33;;;;;;;45.55;30.40;;;;;;;-0.82;83.52;99954.72;1817226;79;21177;-80
2022/03/09 12:46:02;;;;;;;51.18;32.33;;;;;;;-0.72;83.99;99954.90;1816477;79;21148;-82
2022/03/09 12:49:18;;;;;;;47.62;32.75;;;;;;;-0.64;84.45;99953.00;1818102;79;21172;-80
2022/03/09 12:52:24;;;;;;;45.88;30.75;;;;;;;-0.57;84.55;99954.24;1807086;79;21184;-75
2022/03/09 12:55:30;;;;;;;43.35;28.92;;;;;;;-0.53;83.81;99953.05;1824262;77;21200;-81
2022/03/09 12:58:34;;;;;;;52.62;31.95;;;;;;;-0.46;83.83;99954.81;1725085;80;21219;-82
2022/03/09 13:01:40;;;;;;;47.67;31.80;;;;;;;-0.40;84.46;99956.53;1817959;79;21232;-75
2022/03/09 13:04:48;;;;;;;54.00;32.48;;;;;;;-0.31;84.38;99952.30;1784420;80;21141;-76
2022/03/09 13:08:05;;;;;;;46.58;30.15;;;;;;;-0.31;84.06;99955.84;1818037;79;21181;-76
2022/03/09 13:11:10;;;;;;;52.90;34.67;;;;;;;-0.34;83.77;99956.55;1784261;80;21188;-76
2022/03/09 13:14:27;;;;;;;50.40;31.17;;;;;;;-0.37;83.77;99955.46;1825387;78;21148;-76
2022/03/09 13:17:34;;;;;;;39.08;27.95;;;;;;;-0.38;84.25;99950.55;1792189;80;21239;-82
2022/03/09 13:20:33;;;;;;;50.17;32.90;;;;;;;-0.37;84.26;99949.59;1825676;78;21165;-75
2022/03/09 13:23:44;;;;;;;43.33;27.62;;;;;;;-0.38;84.04;99961.30;1791702;80;21721;-75
2022/03/09 13:26:50;;;;;;;42.90;29.30;;;;;;;-0.44;83.78;99955.05;1814251;78;21156;-76
2022/03/09 13:29:57;;;;;;;43.83;30.90;;;;;;;-0.51;83.97;99955.16;1826760;78;21173;-81
2022/03/09 13:33:03;;;;;;;46.53;30.75;;;;;;;-0.55;84.46;99956.34;1826581;78;21157;-77
2022/03/09 13:36:10;;;;;;;45.03;30.37;;;;;;;-0.62;84.71;99959.95;1826658;78;21125;-82
2022/03/09 13:39:15;;;;;;;49.48;32.23;;;;;;;-0.68;85.50;99967.62;1826777;78;21149;-76
2022/03/09 13:42:40;;;;;;;49.63;32.08;;;;;;;-0.73;86.61;99965.77;1826688;78;21177;-76
2022/03/09 13:45:46;;;;;;;46.70;30.17;;;;;;;-0.82;87.68;99976.20;1826704;78;21172;-81
2022/03/09 13:48:52;;;;;;;45.73;29.07;;;;;;;-0.90;88.77;99965.64;1826780;78;21141;-80
2022/03/09 13:52:00;;;;;;;48.30;29.55;;;;;;;-0.95;89.89;99971.34;1826817;78;21448;-81
2022/03/09 13:55:08;;;;;;;45.70;29.25;;;;;;;-0.99;90.73;99975.22;1826878;78;21168;-81
2022/03/09 13:58:20;;;;;;;39.25;23.07;;;;;;;-1.02;91.76;99971.44;1826719;78;21663;-76
2022/03/09 14:01:25;;;;;;;35.98;21.93;;;;;;;-1.11;92.44;99978.31;1826806;78;21721;-81
2022/03/09 14:04:31;;;;;;;24.45;17.17;;;;;;;-1.26;93.28;99974.05;1826976;78;21133;-76
2022/03/09 14:07:46;;;;;;;26.10;17.57;;;;;;;-1.38;94.32;99980.28;1826676;78;21184;-81
2022/03/09 14:10:52;;;;;;;26.42;17.85;;;;;;;-1.56;94.81;99981.08;1826768;78;21201;-77
2022/03/09 14:14:17;;;;;;;28.35;18.65;;;;;;;-1.67;95.81;99976.48;1825686;78;21161;-81
2022/03/09 14:17:22;;;;;;;30.88;20.37;;;;;;;-1.68;96.60;99980.63;1826720;78;21326;-78
2022/03/09 14:20:28;;;;;;;29.32;18.73;;;;;;;-1.63;97.21;99975.79;1826820;78;21130;-80
2022/03/09 14:23:34;;;;;;;27.77;18.90;;;;;;;-1.57;97.62;99974.02;1787633;80;21725;-76
2022/03/09 14:26:48;;;;;;;23.25;16.75;;;;;;;-1.51;97.84;99966.86;1756529;81;21795;-81
2022/03/09 14:29:49;;;;;;;26.97;19.02;;;;;;;-1.46;97.75;99975.44;1768203;81;21213;-77
2022/03/09 14:32:54;;;;;;;24.75;16.90;;;;;;;-1.44;97.33;99980.72;1756433;81;21219;-81
2022/03/09 14:36:03;;;;;;;31.20;18.35;;;;;;;-1.51;97.07;99991.49;1768017;81;21141;-81
2022/03/09 14:39:08;;;;;;;20.82;14.53;;;;;;;-1.64;97.73;99995.05;1756574;81;21156;-81
2022/03/09 14:42:14;;;;;;;23.18;15.60;;;;;;;-1.77;98.57;100004.05;1768159;81;21169;-81
2022/03/09 14:45:19;;;;;;;21.65;15.30;;;;;;;-1.89;99.20;99995.00;1755312;81;21228;-81
2022/03/09 14:48:24;;;;;;;20.12;14.83;;;;;;;-1.91;99.32;99996.95;1768049;81;21761;-76
2022/03/09 14:51:32;;;;;;;19.75;14.50;;;;;;;-1.91;99.19;99999.14;1756494;81;21195;-77
2022/03/09 14:54:41;;;;;;;17.95;13.75;;;;;;;-1.84;98.90;100004.44;1768081;81;21785;-81
2022/03/09 14:57:48;;;;;;;18.65;13.72;;;;;;;-1.75;97.86;100004.78;1756434;81;21207;-76
2022/03/09 15:00:53;;;;;;;23.32;15.38;;;;;;;-1.69;95.78;100009.75;1768034;81;21181;-77
2022/03/09 15:04:00;;;;;;;19.00;13.78;;;;;;;-1.68;93.87;100012.31;1756296;81;21191;-78
2022/03/09 15:07:06;;;;;;;17.05;12.65;;;;;;;-1.71;93.14;100026.41;1767706;81;21209;-81
2022/03/09 15:10:12;;;;;;;22.05;13.88;;;;;;;-1.80;93.08;100022.53;1756328;81;21148;-76
2022/03/09 15:13:07;;;;;;;19.10;14.70;;;;;;;-1.90;92.88;100019.62;1767877;81;21213;-81
2022/03/09 15:16:14;;;;;;;19.48;13.85;;;;;;;-1.98;92.08;100029.99;1756311;80;21191;-81
2022/03/09 15:19:24;;;;;;;19.48;13.08;;;;;;;-2.08;91.17;100031.58;1768191;81;21173;-81
2022/03/09 15:22:29;;;;;;;20.80;14.05;;;;;;;-2.17;90.72;100036.21;1756507;81;21199;-81
2022/03/09 15:25:36;;;;;;;17.87;13.83;;;;;;;-2.27;90.58;100036.45;1767526;81;21149;-80
2022/03/09 15:28:43;;;;;;;17.55;13.32;;;;;;;-2.36;90.45;100040.11;1756609;81;21203;-80
2022/03/09 15:31:50;;;;;;;22.02;13.45;;;;;;;-2.41;90.49;100048.07;1768137;81;21182;-76
2022/03/09 15:34:57;;;;;;;20.05;14.05;;;;;;;-2.44;90.64;100050.48;1756471;81;21231;-80
2022/03/09 15:38:02;;;;;;;19.45;13.15;;;;;;;-2.47;90.69;100060.05;1768063;81;21221;-79
2022/03/09 15:41:07;;;;;;;20.68;12.78;;;;;;;-2.46;90.31;100060.91;1756542;81;21156;-81
2022/03/09 15:44:13;;;;;;;20.65;13.55;;;;;;;-2.49;89.85;100061.09;1768056;81;21146;-79
2022/03/09 15:47:19;;;;;;;20.50;12.75;;;;;;;-2.54;89.33;100068.56;1756478;81;21226;-80
2022/03/09 15:50:24;;;;;;;17.30;12.95;;;;;;;-2.61;88.99;100070.80;1768242;81;21138;-80
2022/03/09 15:53:30;;;;;;;18.17;13.05;;;;;;;-2.69;88.82;100071.27;1756523;81;21156;-80
2022/03/09 15:56:35;;;;;;;23.00;16.30;;;;;;;-2.75;88.85;100076.17;1775677;79;21193;-75
2022/03/09 15:59:42;;;;;;;20.52;14.25;;;;;;;-2.84;88.95;100090.52;1779305;80;21195;-81
2022/03/09 16:02:49;;;;;;;27.30;18.90;;;;;;;-2.88;89.10;100088.13;1812828;79;21178;-81
2022/03/09 16:05:56;;;;;;;21.75;14.83;;;;;;;-2.92;89.38;100094.63;1792392;80;21181;-81
2022/03/09 16:09:01;;;;;;;23.80;16.35;;;;;;;-2.90;89.93;100098.94;1811921;79;21268;-77
2022/03/09 16:12:06;;;;;;;21.90;14.75;;;;;;;-2.81;90.60;100106.88;1810666;79;21741;-76
2022/03/09 16:15:13;;;;;;;22.80;16.15;;;;;;;-2.70;91.01;100114.22;1812103;79;21173;-80
2022/03/09 16:18:19;;;;;;;22.15;15.18;;;;;;;-2.62;91.18;100121.30;1793256;79;21176;-80
2022/03/09 16:21:27;;;;;;;25.92;16.95;;;;;;;-2.60;91.24;100110.00;1794353;80;21223;-75
2022/03/09 16:24:35;;;;;;;26.77;18.32;;;;;;;-2.60;91.51;100123.39;1793993;80;21722;-76
2022/03/09 16:27:40;;;;;;;21.15;16.02;;;;;;;-2.61;91.96;100127.03;1794180;80;21223;-75
2022/03/09 16:30:45;;;;;;;24.25;16.27;;;;;;;-2.65;92.06;100129.52;1794080;80;21189;-80
2022/03/09 16:33:51;;;;;;;28.07;17.55;;;;;;;-2.77;92.00;100139.20;1794105;80;21161;-76
2022/03/09 16:36:56;;;;;;;30.20;18.07;;;;;;;-2.90;91.96;100133.73;1793403;80;21729;-80
2022/03/09 16:39:55;;;;;;;24.12;17.32;;;;;;;-2.99;92.10;100132.97;1794291;80;21141;-79
2022/03/09 16:43:00;;;;;;;28.42;19.00;;;;;;;-3.04;92.22;100139.08;1794116;80;21200;-80
2022/03/09 16:46:11;;;;;;;22.98;16.55;;;;;;;-3.11;92.28;100147.09;1793688;80;21195;-75
2022/03/09 16:49:13;;;;;;;23.95;16.85;;;;;;;-3.17;92.32;100147.47;1794246;80;21164;-76
2022/03/09 16:52:19;;;;;;;23.87;16.62;;;;;;;-3.21;92.46;100157.97;1793960;80;21753;-80
2022/03/09 16:55:25;;;;;;;25.23;15.90;;;;;;;-3.20;92.93;100159.23;1794448;80;21165;-81
2022/03/09 16:58:30;;;;;;;26.75;17.77;;;;;;;-3.14;93.30;100166.02;1794612;80;21685;-76
2022/03/09 17:01:37;;;;;;;23.80;15.48;;;;;;;-3.09;93.64;100163.92;1794155;80;21702;-75
2022/03/09 17:04:44;;;;;;;22.82;16.55;;;;;;;-3.04;94.02;100173.02;1793576;80;21165;-80
2022/03/09 17:07:54;;;;;;;27.35;16.77;;;;;;;-2.98;94.58;100166.80;1793680;80;21212;-76
2022/03/09 17:10:58;;;;;;;23.25;16.12;;;;;;;-2.94;94.96;100164.31;1794679;80;21169;-75
2022/03/09 17:14:04;;;;;;;22.13;16.80;;;;;;;-2.88;95.43;100173.78;1794702;80;21179;-76
2022/03/09 17:17:10;;;;;;;22.80;16.67;;;;;;;-2.87;95.91;100176.39;1792775;78;21690;-81
2022/03/09 17:20:18;;;;;;;26.62;17.57;;;;;;;-2.81;96.31;100168.93;1790924;79;21161;-81
2022/03/09 17:23:24;;;;;;;27.67;18.48;;;;;;;-2.76;96.64;100181.55;1790739;80;21212;-81
2022/03/09 17:26:32;;;;;;;25.65;17.60;;;;;;;-2.75;96.88;100185.45;1791618;80;21216;-81
2022/03/09 17:29:41;;;;;;;28.35;18.32;;;;;;;-2.74;96.88;100171.59;1792204;80;21153;-81
2022/03/09 17:32:47;;;;;;;29.40;18.60;;;;;;;-2.76;96.83;100174.38;1791992;80;21153;-77
2022/03/09 17:35:53;;;;;;;23.85;17.12;;;;;;;-2.77;97.02;100175.34;1792156;80;21185;-78
2022/03/09 17:38:58;;;;;;;26.27;16.90;;;;;;;-2.76;97.23;100178.88;1792229;80;21204;-76
2022/03/09 17:42:04;;;;;;;27.32;17.65;;;;;;;-2.77;97.48;100182.52;1791708;80;21172;-81
2022/03/09 17:45:12;;;;;;;27.10;16.97;;;;;;;-2.75;97.83;100185.94;1790695;80;21165;-81
2022/03/09 17:48:18;;;;;;;28.90;18.02;;;;;;;-2.74;98.17;100190.33;1791708;80;21168;-81
2022/03/09 17:51:25;;;;;;;24.23;16.45;;;;;;;-2.75;98.48;100185.94;1790698;80;21204;-77
2022/03/09 17:54:31;;;;;;;23.85;17.15;;;;;;;-2.76;98.96;100194.94;1790798;80;22037;-81
2022/03/09 17:57:39;;;;;;;22.27;14.80;;;;;;;-2.77;99.61;100200.77;1791129;80;21149;-81
2022/03/09 18:00:44;;;;;;;20.65;14.10;;;;;;;-2.78;100.00;100210.21;1792415;80;21169;-79
2022/03/09 18:03:45;;;;;;;17.52;12.58;;;;;;;-2.81;100.00;100221.13;1790817;80;21785;-76